Time;durP1;ratioP1;P1;durP2;ratioP2;P2;SDS_P1;SDS_P2;PMS_P1;PMS_P2;Temp;Humidity;BMP_temperature;BMP_pressure;BME280_temperature;BME280_humidity;BME280_pressure;Samples;Min_cycle;Max_cycle;Signal;HPM_P1;HPM_P2
2021/08/17 00:00:11;;;;;;;5.32;2.00;;;;;;;21.79;51.18;101744.53;5055261;28;20016;-58
2021/08/17 00:02:36;;;;;;;5.35;2.70;;;;;;;21.76;51.30;101745.63;5055890;28;20032;-58
2021/08/17 00:05:03;;;;;;;4.90;2.22;;;;;;;21.77;51.23;101746.47;5055163;28;20025;-59
2021/08/17 00:07:29;;;;;;;4.57;2.17;;;;;;;21.78;51.47;101746.34;5056215;28;20071;-59
2021/08/17 00:09:54;;;;;;;6.35;2.17;;;;;;;21.76;51.25;101744.78;5055746;28;20137;-61
2021/08/17 00:12:21;;;;;;;5.63;2.63;;;;;;;21.74;51.17;101751.03;5055288;28;20227;-58
2021/08/17 00:14:47;;;;;;;5.95;2.38;;;;;;;21.72;51.31;101745.03;5055585;28;20028;-58
2021/08/17 00:17:13;;;;;;;5.97;2.50;;;;;;;21.74;51.31;101748.41;5055709;28;20021;-59
2021/08/17 00:19:40;;;;;;;4.70;2.40;;;;;;;21.74;51.19;101745.75;5055191;28;20083;-59
2021/08/17 00:22:09;;;;;;;5.97;2.72;;;;;;;21.72;51.29;101738.91;5055498;28;20029;-59
2021/08/17 00:24:34;;;;;;;5.72;2.60;;;;;;;21.72;51.32;101741.56;5054778;28;20040;-58
2021/08/17 00:27:00;;;;;;;5.15;2.40;;;;;;;21.72;51.24;101736.25;5054517;28;20021;-59
2021/08/17 00:29:28;;;;;;;5.55;2.63;;;;;;;21.71;51.20;101735.41;5055444;28;20049;-59
2021/08/17 00:31:54;;;;;;;5.32;2.65;;;;;;;21.70;51.20;101731.06;5055056;28;20524;-59
2021/08/17 00:34:19;;;;;;;5.25;2.50;;;;;;;21.70;51.19;101736.38;5053262;28;20132;-59
2021/08/17 00:36:45;;;;;;;5.22;2.60;;;;;;;21.69;51.15;101732.03;5055103;28;20029;-59
2021/08/17 00:39:11;;;;;;;5.72;2.53;;;;;;;21.69;51.25;101732.03;5055554;28;20032;-59
2021/08/17 00:41:38;;;;;;;5.10;2.63;;;;;;;21.69;51.25;101729.38;5054824;28;20403;-59
2021/08/17 00:44:05;;;;;;;6.40;2.97;;;;;;;21.68;51.41;101727.72;5054964;28;20033;-59
2021/08/17 00:46:30;;;;;;;6.45;3.85;;;;;;;21.67;51.23;101731.31;5055123;28;20135;-59
2021/08/17 00:48:55;;;;;;;6.65;2.97;;;;;;;21.67;51.34;101719.88;5053534;28;20437;-59
2021/08/17 00:51:21;;;;;;;7.90;3.30;;;;;;;21.66;51.21;101719.00;5055182;28;20033;-59
2021/08/17 00:53:46;;;;;;;6.55;3.20;;;;;;;21.64;51.31;101715.66;5054526;28;20293;-58
2021/08/17 00:56:14;;;;;;;6.82;3.40;;;;;;;21.66;51.41;101719.00;5054228;28;20112;-59
2021/08/17 00:58:39;;;;;;;7.15;3.67;;;;;;;21.65;51.30;101716.47;5055028;28;20029;-59
2021/08/17 01:01:08;;;;;;;6.72;3.58;;;;;;;21.64;51.22;101710.34;5054423;28;20040;-60
2021/08/17 01:03:37;;;;;;;6.78;3.97;;;;;;;21.64;51.09;101712.16;5054934;28;20029;-59
2021/08/17 01:06:06;;;;;;;8.32;4.00;;;;;;;21.63;51.26;101705.16;5054726;28;20025;-60
2021/08/17 01:08:37;;;;;;;6.57;3.70;;;;;;;21.60;51.19;101708.91;5054145;28;20013;-60
2021/08/17 01:11:06;;;;;;;8.18;3.90;;;;;;;21.61;51.10;101702.63;5054534;28;20021;-60
2021/08/17 01:13:32;;;;;;;8.48;4.22;;;;;;;21.61;51.40;101704.47;5054637;28;20036;-59
2021/08/17 01:16:00;;;;;;;7.53;3.92;;;;;;;21.59;51.49;101704.59;5053668;28;20025;-59
2021/08/17 01:18:26;;;;;;;7.93;4.65;;;;;;;21.61;51.45;101713.25;5054648;28;20037;-60
2021/08/17 01:20:54;;;;;;;7.40;4.40;;;;;;;21.61;51.27;101717.72;5054361;28;20025;-59
2021/08/17 01:23:21;;;;;;;7.55;4.43;;;;;;;21.59;51.35;101711.69;5053671;28;20634;-59
2021/08/17 01:25:47;;;;;;;8.68;4.75;;;;;;;21.59;51.20;101715.19;5053039;28;20057;-60
2021/08/17 01:28:13;;;;;;;9.73;4.97;;;;;;;21.59;51.44;101709.91;5054592;28;20056;-59
2021/08/17 01:30:38;;;;;;;7.60;4.57;;;;;;;21.59;51.55;101723.16;5053792;28;20029;-59
2021/08/17 01:33:07;;;;;;;6.93;4.03;;;;;;;21.58;51.53;101718.81;5054128;28;20036;-59
2021/08/17 01:35:32;;;;;;;7.65;4.35;;;;;;;21.59;51.38;101722.28;5054196;28;20452;-60
2021/08/17 01:37:57;;;;;;;9.53;5.33;;;;;;;21.58;51.43;101724.09;5053030;28;20056;-59
2021/08/17 01:40:25;;;;;;;8.43;4.53;;;;;;;21.58;51.54;101729.41;5054105;28;20603;-59
2021/08/17 01:42:51;;;;;;;9.30;4.72;;;;;;;21.57;51.19;101727.75;5053855;28;20278;-60
2021/08/17 01:45:18;;;;;;;8.48;5.05;;;;;;;21.58;51.21;101733.88;5052578;28;20083;-59
2021/08/17 01:47:44;;;;;;;11.10;5.75;;;;;;;21.56;51.48;101728.72;5053899;28;20025;-60
2021/08/17 01:50:11;;;;;;;8.93;5.22;;;;;;;21.56;51.42;101723.41;5053954;28;20048;-59
2021/08/17 01:52:39;;;;;;;8.95;5.40;;;;;;;21.56;51.26;101723.41;5053194;28;20079;-59
2021/08/17 01:55:07;;;;;;;9.02;5.18;;;;;;;21.55;51.44;101727.88;5053487;28;20036;-59
2021/08/17 01:57:32;;;;;;;8.93;5.40;;;;;;;21.56;51.54;101731.38;5053381;28;20029;-60
2021/08/17 01:59:57;;;;;;;9.53;5.57;;;;;;;21.54;51.37;101728.00;5053786;28;20028;-59
2021/08/17 02:02:23;;;;;;;9.97;5.57;;;;;;;21.53;51.52;101721.00;5053941;28;20276;-59
2021/08/17 02:04:48;;;;;;;9.38;5.53;;;;;;;21.53;51.51;101729.78;5052764;28;20025;-58
2021/08/17 02:07:13;;;;;;;9.07;5.10;;;;;;;21.53;51.57;101732.44;5053810;28;20021;-60
2021/08/17 02:09:39;;;;;;;9.63;5.72;;;;;;;21.53;51.39;101740.41;5053536;28;20027;-59
2021/08/17 02:12:07;;;;;;;10.55;6.18;;;;;;;21.53;51.44;101739.56;5052682;28;20447;-60
2021/08/17 02:14:32;;;;;;;10.40;6.10;;;;;;;21.52;51.38;101735.22;5053623;28;20048;-59
2021/08/17 02:16:57;;;;;;;10.00;6.55;;;;;;;21.52;51.76;101736.09;5053100;28;20469;-59
2021/08/17 02:19:26;;;;;;;11.27;6.18;;;;;;;21.51;51.63;101737.03;5052666;28;20040;-59
2021/08/17 02:21:51;;;;;;;10.68;5.80;;;;;;;21.50;51.59;101734.50;5053001;28;20025;-60
2021/08/17 02:24:16;;;;;;;10.18;6.13;;;;;;;21.50;51.68;101731.88;5053236;28;20495;-60
2021/08/17 02:26:41;;;;;;;10.57;6.10;;;;;;;21.50;51.58;101735.34;5052731;28;20052;-59
2021/08/17 02:29:07;;;;;;;10.65;6.80;;;;;;;21.50;51.71;101739.81;5052979;28;20266;-60
2021/08/17 02:31:32;;;;;;;9.68;5.85;;;;;;;21.50;51.80;101739.81;5053211;28;20032;-59
2021/08/17 02:33:57;;;;;;;9.47;6.13;;;;;;;21.47;51.76;101735.56;5052045;28;20159;-60
2021/08/17 02:36:22;;;;;;;10.37;6.20;;;;;;;21.48;51.80;101734.63;5053008;28;20277;-60
2021/08/17 02:38:48;;;;;;;11.93;7.28;;;;;;;21.47;51.80;101730.25;5052818;28;20029;-61
2021/08/17 02:41:13;;;;;;;10.77;6.50;;;;;;;21.49;51.79;101741.63;5052425;28;20115;-59
2021/08/17 02:43:38;;;;;;;10.93;6.88;;;;;;;21.46;51.70;101733.91;5053139;28;20273;-59
2021/08/17 02:46:04;;;;;;;10.53;6.53;;;;;;;21.47;51.84;101735.56;5052849;28;20476;-59
2021/08/17 02:48:29;;;;;;;10.07;5.82;;;;;;;21.47;51.86;101729.44;5052091;28;20305;-58
2021/08/17 02:50:54;;;;;;;9.50;6.07;;;;;;;21.46;51.64;101725.06;5052725;28;20114;-60
2021/08/17 02:53:20;;;;;;;10.63;6.32;;;;;;;21.47;51.83;101732.06;5052731;28;20297;-59
2021/08/17 02:55:45;;;;;;;11.90;6.50;;;;;;;21.46;51.77;101733.03;5051701;28;20061;-58
2021/08/17 02:58:11;;;;;;;10.10;5.78;;;;;;;21.46;51.67;101727.72;5051483;28;20040;-59
2021/08/17 03:00:37;;;;;;;11.63;6.72;;;;;;;21.46;51.87;101733.03;5052937;28;20099;-59
2021/08/17 03:03:03;;;;;;;11.02;6.65;;;;;;;21.44;51.90;101730.50;5051863;28;20346;-58
2021/08/17 03:05:31;;;;;;;9.85;6.22;;;;;;;21.45;51.77;101737.50;5052917;28;20076;-59
2021/08/17 03:08:05;;;;;;;11.52;7.13;;;;;;;21.44;51.79;101733.16;5051737;28;20505;-59
2021/08/17 03:10:36;;;;;;;10.55;6.63;;;;;;;21.45;51.69;101736.66;5052991;28;20078;-58
2021/08/17 03:13:03;;;;;;;11.70;7.07;;;;;;;21.44;51.74;101734.97;5052336;28;20039;-59
2021/08/17 03:15:34;;;;;;;10.88;6.55;;;;;;;21.44;51.51;101733.16;5052222;28;20029;-59
2021/08/17 03:18:09;;;;;;;10.70;6.82;;;;;;;21.42;51.83;101727.16;5052443;28;20025;-59
2021/08/17 03:20:36;;;;;;;9.98;6.95;;;;;;;21.43;51.91;101728.84;5052741;28;20055;-59
2021/08/17 03:23:02;;;;;;;12.10;6.82;;;;;;;21.43;52.03;101735.94;5052001;28;20159;-59
2021/08/17 03:25:28;;;;;;;12.95;6.68;;;;;;;21.42;51.93;101724.50;5052759;28;20029;-58
2021/08/17 03:27:55;;;;;;;9.65;6.28;;;;;;;21.42;51.84;101727.16;5052212;28;20017;-58
2021/08/17 03:30:23;;;;;;;11.90;7.05;;;;;;;21.42;52.01;101715.72;5051949;28;20111;-59
2021/08/17 03:32:48;;;;;;;10.25;6.22;;;;;;;21.41;51.85;101714.00;5052358;28;20229;-59
2021/08/17 03:35:14;;;;;;;9.52;5.82;;;;;;;21.41;52.00;101721.97;5052648;28;20108;-58
2021/08/17 03:37:40;;;;;;;12.38;6.65;;;;;;;21.39;51.73;101716.78;5051984;28;20029;-58
2021/08/17 03:40:08;;;;;;;10.02;6.75;;;;;;;21.40;51.99;101707.88;5052291;28;20107;-58
2021/08/17 03:42:33;;;;;;;10.70;6.50;;;;;;;21.40;52.05;101717.66;5052483;28;20435;-58
2021/08/17 03:44:59;;;;;;;10.93;7.20;;;;;;;21.40;52.00;101722.97;5051540;28;20460;-59
2021/08/17 03:47:25;;;;;;;10.32;7.00;;;;;;;21.40;51.91;101720.31;5052646;28;20040;-59
2021/08/17 03:49:50;;;;;;;11.07;7.03;;;;;;;21.38;51.80;101704.53;5051653;28;20045;-60
2021/08/17 03:52:15;;;;;;;11.48;6.57;;;;;;;21.37;52.11;101700.16;5051468;28;20025;-59
2021/08/17 03:54:44;;;;;;;11.77;6.93;;;;;;;21.38;51.97;101704.53;5052319;28;20043;-58
2021/08/17 03:57:10;;;;;;;11.32;6.85;;;;;;;21.38;51.94;101699.22;5051608;28;20477;-58
2021/08/17 03:59:38;;;;;;;11.10;7.20;;;;;;;21.36;51.68;101709.94;5052476;28;20031;-58
2021/08/17 04:02:03;;;;;;;10.70;6.82;;;;;;;21.36;51.98;101709.94;5051874;28;20451;-60
2021/08/17 04:04:28;;;;;;;11.18;7.05;;;;;;;21.36;52.14;101694.03;5051725;28;20025;-59
2021/08/17 04:06:54;;;;;;;11.40;6.60;;;;;;;21.36;51.89;101699.34;5051585;28;20437;-60
2021/08/17 04:09:19;;;;;;;11.77;6.97;;;;;;;21.36;51.97;101707.28;5053712;28;20025;-60
2021/08/17 04:11:44;;;;;;;10.82;6.97;;;;;;;21.35;51.86;101700.28;5054963;28;20032;-59
2021/08/17 04:14:09;;;;;;;11.15;7.00;;;;;;;21.33;51.89;101696.94;5055609;28;20032;-59
2021/08/17 04:16:35;;;;;;;13.52;7.20;;;;;;;21.35;51.95;101705.59;5055719;28;20155;-59
2021/08/17 04:19:00;;;;;;;10.00;6.60;;;;;;;21.34;51.96;101708.38;5054619;28;20151;-60
2021/08/17 04:21:25;;;;;;;11.05;6.93;;;;;;;21.34;52.08;101703.06;5055912;28;20051;-60
2021/08/17 04:23:53;;;;;;;13.88;7.53;;;;;;;21.33;52.02;101704.03;5055525;28;20032;-60
2021/08/17 04:26:19;;;;;;;10.07;6.63;;;;;;;21.30;51.97;101713.09;5054667;28;20031;-60
2021/08/17 04:28:44;;;;;;;10.68;7.20;;;;;;;21.32;52.06;101719.09;5055323;28;20100;-59
2021/08/17 04:31:12;;;;;;;11.20;6.90;;;;;;;21.32;52.00;101716.44;5055477;28;20415;-60
2021/08/17 04:33:37;;;;;;;11.25;7.30;;;;;;;21.31;51.87;101728.00;5054553;28;20680;-60
2021/08/17 04:36:06;;;;;;;10.53;6.93;;;;;;;21.32;51.97;101728.88;5055726;28;20033;-60
2021/08/17 04:38:34;;;;;;;10.85;6.93;;;;;;;21.29;51.99;101727.31;5055917;28;20281;-58
2021/08/17 04:41:00;;;;;;;11.25;6.85;;;;;;;21.31;51.91;101733.31;5055017;28;20021;-59
2021/08/17 04:43:25;;;;;;;10.55;6.32;;;;;;;21.31;52.14;101733.31;5055345;28;20039;-60
2021/08/17 04:45:52;;;;;;;10.60;6.80;;;;;;;21.30;51.93;101729.00;5054819;28;20067;-59
2021/08/17 04:48:17;;;;;;;13.63;6.90;;;;;;;21.29;51.87;101727.31;5055453;28;20362;-58
2021/08/17 04:50:43;;;;;;;11.55;7.38;;;;;;;21.31;51.98;101722.72;5057433;28;20425;-59
2021/08/17 04:53:11;;;;;;;11.55;6.68;;;;;;;21.29;51.81;101716.69;5057188;28;20116;-59
2021/08/17 04:55:39;;;;;;;10.30;6.38;;;;;;;21.29;51.91;101724.66;5055577;28;20461;-59
2021/08/17 04:58:05;;;;;;;11.07;6.57;;;;;;;21.29;51.91;101729.13;5054382;28;20366;-60
2021/08/17 05:00:31;;;;;;;12.60;7.28;;;;;;;21.30;51.94;101731.66;5053913;28;20032;-59
2021/08/17 05:02:57;;;;;;;10.73;7.10;;;;;;;21.29;51.86;101727.31;5054774;28;20029;-60
2021/08/17 05:05:22;;;;;;;11.50;6.70;;;;;;;21.28;51.92;101730.06;5054636;28;20076;-60
2021/08/17 05:07:50;;;;;;;12.15;7.00;;;;;;;21.28;52.08;101733.56;5053548;28;20027;-59
2021/08/17 05:10:18;;;;;;;11.57;7.15;;;;;;;21.28;51.95;101732.72;5054731;28;20025;-60
2021/08/17 05:12:43;;;;;;;9.73;6.65;;;;;;;21.27;51.89;101739.84;5054306;28;20473;-59
2021/08/17 05:15:10;;;;;;;11.27;6.47;;;;;;;21.24;52.08;101729.50;5053848;28;20036;-60
2021/08/17 05:17:38;;;;;;;10.35;6.72;;;;;;;21.28;51.95;101730.06;5054829;28;20025;-59
2021/08/17 05:20:06;;;;;;;10.10;6.15;;;;;;;21.27;52.07;101734.53;5053929;28;20029;-59
2021/08/17 05:22:31;;;;;;;11.25;6.95;;;;;;;21.26;51.88;101735.50;5053323;28;20040;-59
2021/08/17 05:24:57;;;;;;;11.82;7.53;;;;;;;21.25;52.07;101744.41;5054048;28;20025;-59
2021/08/17 05:27:22;;;;;;;9.77;6.60;;;;;;;21.28;52.19;101748.63;5054231;28;20454;-59
2021/08/17 05:29:50;;;;;;;10.20;6.57;;;;;;;21.26;52.08;101751.41;5053211;28;20124;-58
2021/08/17 05:32:16;;;;;;;10.52;6.60;;;;;;;21.27;52.15;101750.47;5054421;28;20397;-60
2021/08/17 05:34:41;;;;;;;10.88;6.75;;;;;;;21.27;52.10;101747.81;5054302;28;20448;-59
2021/08/17 05:37:07;;;;;;;10.35;6.82;;;;;;;21.27;52.00;101746.94;5053036;28;20469;-59
2021/08/17 05:39:32;;;;;;;10.75;7.22;;;;;;;21.27;52.04;101744.28;5054261;28;20111;-59
2021/08/17 05:41:57;;;;;;;11.27;7.00;;;;;;;21.26;52.23;101748.75;5053730;28;20107;-59
2021/08/17 05:44:22;;;;;;;10.32;6.60;;;;;;;21.25;52.42;101751.53;5053085;28;20309;-59
2021/08/17 05:46:48;;;;;;;11.17;6.50;;;;;;;21.25;52.30;101754.19;5053818;28;20025;-59
2021/08/17 05:49:13;;;;;;;9.55;6.43;;;;;;;21.25;52.07;101755.00;5053681;28;20352;-60
2021/08/17 05:51:38;;;;;;;10.57;6.37;;;;;;;21.26;52.18;101753.22;5053100;28;20029;-59
2021/08/17 05:54:06;;;;;;;10.23;6.45;;;;;;;21.25;52.24;101743.56;5053546;28;20688;-59
2021/08/17 05:56:32;;;;;;;10.80;7.38;;;;;;;21.25;52.22;101747.06;5057021;28;20043;-60
2021/08/17 05:58:58;;;;;;;9.50;6.25;;;;;;;21.25;52.44;101748.88;5056676;28;20029;-59
2021/08/17 06:01:23;;;;;;;10.02;6.53;;;;;;;21.25;52.02;101744.41;5057697;28;20028;-58
2021/08/17 06:03:48;;;;;;;10.50;6.60;;;;;;;21.25;52.28;101747.06;5057271;28;20029;-58
2021/08/17 06:06:13;;;;;;;9.25;6.32;;;;;;;21.26;52.45;101745.28;5058041;28;20029;-58
2021/08/17 06:08:39;;;;;;;11.17;6.73;;;;;;;21.24;52.16;101736.59;5058890;28;20045;-59
2021/08/17 06:11:04;;;;;;;11.43;6.57;;;;;;;21.24;52.32;101732.16;5057630;28;20274;-59
2021/08/17 06:13:29;;;;;;;11.77;6.83;;;;;;;21.25;52.76;101733.81;5057492;28;20048;-59
2021/08/17 06:15:54;;;;;;;10.60;6.85;;;;;;;21.25;52.36;101735.63;5053974;28;20736;-59
2021/08/17 06:18:20;;;;;;;10.90;6.32;;;;;;;21.25;52.35;101743.56;5053575;28;20439;-60
2021/08/17 06:20:45;;;;;;;10.63;6.68;;;;;;;21.24;52.52;101737.44;5054622;28;20029;-63
2021/08/17 06:23:10;;;;;;;10.32;6.75;;;;;;;21.24;52.39;101733.94;5053836;28;20029;-59
2021/08/17 06:25:36;;;;;;;9.93;6.15;;;;;;;21.23;52.58;101740.22;5052853;28;20021;-58
2021/08/17 06:28:09;;;;;;;9.90;6.57;;;;;;;21.22;52.58;101720.84;5052989;28;20492;-59
2021/08/17 06:30:36;;;;;;;11.48;6.35;;;;;;;21.21;52.67;101724.44;5053328;28;20159;-60
2021/08/17 06:33:01;;;;;;;11.90;6.65;;;;;;;21.21;52.86;101711.19;5052215;28;20354;-60
2021/08/17 06:35:26;;;;;;;10.25;6.60;;;;;;;21.19;52.69;101702.53;5052959;28;20028;-60
2021/08/17 06:37:52;;;;;;;11.43;6.80;;;;;;;21.21;53.04;101719.13;5052999;28;20020;-58
2021/08/17 06:40:18;;;;;;;12.95;6.78;;;;;;;21.20;52.93;101710.34;5052315;28;20519;-59
2021/08/17 06:42:43;;;;;;;10.90;6.57;;;;;;;21.24;53.14;101724.19;5052466;28;20021;-60
2021/08/17 06:45:10;;;;;;;11.00;6.80;;;;;;;21.24;53.06;101707.41;5052869;28;20028;-59
2021/08/17 06:47:48;;;;;;;11.40;6.85;;;;;;;21.25;53.26;101717.91;5052157;28;20021;-59
2021/08/17 06:50:16;;;;;;;12.27;6.85;;;;;;;21.26;53.27;101716.13;5052885;28;20056;-58
2021/08/17 06:52:46;;;;;;;10.80;6.93;;;;;;;21.25;53.12;101711.78;5052699;28;20039;-60
2021/08/17 06:55:12;;;;;;;11.85;6.60;;;;;;;21.26;53.24;101709.00;5052461;28;20021;-62
2021/08/17 06:57:39;;;;;;;11.93;6.85;;;;;;;21.28;53.25;101712.34;5052374;28;20043;-60
2021/08/17 07:00:07;;;;;;;10.95;6.30;;;;;;;21.29;53.23;101726.47;5051799;28;20029;-60
2021/08/17 07:02:33;;;;;;;10.38;6.40;;;;;;;21.28;53.35;101730.91;5052595;28;20489;-60
2021/08/17 07:04:58;;;;;;;10.05;6.50;;;;;;;21.29;53.42;101737.06;5051886;28;20075;-58
2021/08/17 07:07:23;;;;;;;10.52;6.25;;;;;;;21.30;53.21;101739.59;5051871;28;20116;-59
2021/08/17 07:09:49;;;;;;;11.50;6.90;;;;;;;21.30;53.62;101752.00;5052387;28;20028;-61
2021/08/17 07:12:14;;;;;;;10.30;6.60;;;;;;;21.31;53.60;101751.88;5052635;28;20024;-60
2021/08/17 07:14:39;;;;;;;9.73;6.13;;;;;;;21.32;53.50;101758.03;5052034;28;20038;-60
2021/08/17 07:17:05;;;;;;;10.82;6.57;;;;;;;21.32;53.54;101761.53;5052471;28;20032;-60
2021/08/17 07:19:33;;;;;;;10.73;6.30;;;;;;;21.33;53.61;101757.91;5052464;28;20047;-60
2021/08/17 07:21:59;;;;;;;11.95;6.68;;;;;;;21.30;53.57;101752.88;5051464;28;20274;-57
2021/08/17 07:24:25;;;;;;;11.68;6.90;;;;;;;21.30;53.64;101739.59;5053959;28;20025;-60
2021/08/17 07:26:53;;;;;;;9.50;6.38;;;;;;;21.32;54.02;101734.19;5054180;28;20109;-60
2021/08/17 07:29:19;;;;;;;10.48;6.43;;;;;;;21.34;53.93;101743.69;5052999;28;20028;-59
2021/08/17 07:31:44;;;;;;;12.45;6.63;;;;;;;21.33;53.87;101760.56;5055556;28;20036;-59
2021/08/17 07:34:19;;;;;;;10.73;6.80;;;;;;;21.35;53.65;101774.53;5057476;28;20025;-59
2021/08/17 07:36:44;;;;;;;9.43;5.45;;;;;;;21.34;53.73;101767.53;5054769;28;20104;-59
2021/08/17 07:39:14;;;;;;;9.25;5.78;;;;;;;21.39;53.71;101769.81;5053205;28;20445;-59
2021/08/17 07:41:43;;;;;;;10.75;6.55;;;;;;;21.38;53.87;101768.16;5054400;28;20044;-59
2021/08/17 07:44:11;;;;;;;10.13;5.70;;;;;;;21.40;54.04;101752.94;5061594;28;20048;-58
2021/08/17 07:46:37;;;;;;;12.52;5.68;;;;;;;21.42;53.92;101727.16;5063056;28;20049;-60
2021/08/17 07:49:02;;;;;;;11.65;5.80;;;;;;;21.39;53.80;101706.19;5056335;28;20122;-60
2021/08/17 07:51:34;;;;;;;10.20;5.70;;;;;;;21.41;53.71;101698.94;5057779;28;20021;-61
2021/08/17 07:54:02;;;;;;;9.60;5.80;;;;;;;21.44;53.88;101703.16;5057910;28;20155;-59
2021/08/17 07:56:27;;;;;;;11.20;6.13;;;;;;;21.45;53.78;101723.41;5058949;28;20065;-60
2021/08/17 07:58:53;;;;;;;9.77;5.43;;;;;;;21.45;54.11;101726.91;5058008;28;20453;-60
2021/08/17 08:01:24;;;;;;;10.00;5.57;;;;;;;21.46;53.94;101730.38;5058848;28;20795;-59
2021/08/17 08:03:49;;;;;;;11.27;5.35;;;;;;;21.46;54.15;101725.94;5055952;28;20330;-60
2021/08/17 08:06:16;;;;;;;11.17;5.90;;;;;;;21.46;54.15;101723.28;5060464;28;20095;-60
2021/08/17 08:08:42;;;;;;;9.32;5.50;;;;;;;21.46;54.17;101725.94;5056418;28;20381;-59
2021/08/17 08:11:08;;;;;;;10.27;5.82;;;;;;;21.46;54.05;101717.97;5055168;28;20021;-59
2021/08/17 08:13:35;;;;;;;8.45;5.20;;;;;;;21.45;54.07;101716.28;5055964;28;20353;-58
2021/08/17 08:16:01;;;;;;;9.10;5.30;;;;;;;21.42;54.12;101705.94;5055762;28;20036;-59
2021/08/17 08:18:26;;;;;;;8.65;5.18;;;;;;;21.42;54.17;101713.06;5054965;28;20029;-58
2021/08/17 08:20:51;;;;;;;9.30;5.60;;;;;;;21.40;54.04;101707.88;5055611;28;20388;-58
2021/08/17 08:23:17;;;;;;;8.55;5.30;;;;;;;21.38;54.00;101708.00;5055710;28;20028;-58
2021/08/17 08:25:42;;;;;;;9.77;5.72;;;;;;;21.40;53.97;101720.31;5055038;28;20025;-55
2021/08/17 08:28:09;;;;;;;9.07;5.63;;;;;;;21.41;54.16;101725.44;5056040;28;20020;-58
2021/08/17 08:30:35;;;;;;;12.18;5.30;;;;;;;21.41;54.18;101732.56;5055852;28;20029;-58
2021/08/17 08:33:00;;;;;;;8.77;4.97;;;;;;;21.42;54.20;101727.16;5054277;28;20369;-59
2021/08/17 08:35:25;;;;;;;10.70;5.72;;;;;;;21.41;54.27;101728.09;5055798;28;20070;-60
2021/08/17 08:37:51;;;;;;;10.48;5.47;;;;;;;21.43;54.17;101726.19;5055339;28;20035;-58
2021/08/17 08:40:16;;;;;;;8.52;4.50;;;;;;;21.42;54.27;101713.06;5054762;28;20056;-58
2021/08/17 08:42:44;;;;;;;8.50;5.10;;;;;;;21.42;54.27;101721.00;5055509;28;20021;-59
2021/08/17 08:45:09;;;;;;;10.05;4.55;;;;;;;21.40;54.24;101712.34;5055486;28;20025;-60
2021/08/17 08:47:39;;;;;;;8.80;5.05;;;;;;;21.42;54.40;101703.28;5055515;28;20021;-58
2021/08/17 08:50:04;;;;;;;10.23;4.72;;;;;;;21.42;54.49;101713.88;5054817;28;20057;-58
2021/08/17 08:52:30;;;;;;;9.73;4.90;;;;;;;21.43;54.41;101722.69;5054270;28;20110;-58
2021/08/17 08:54:56;;;;;;;8.70;5.03;;;;;;;21.41;54.36;101722.81;5055034;28;20029;-59
2021/08/17 08:57:22;;;;;;;9.80;4.47;;;;;;;21.42;54.38;101724.50;5059213;28;20024;-60
2021/08/17 08:59:47;;;;;;;9.57;5.03;;;;;;;21.43;54.55;101722.69;5061285;28;20021;-60
2021/08/17 09:02:17;;;;;;;8.90;4.90;;;;;;;21.42;54.50;101727.16;5060111;28;20033;-61
2021/08/17 09:04:54;;;;;;;9.13;4.70;;;;;;;21.43;54.62;101731.50;5061068;28;20100;-59
2021/08/17 09:07:34;;;;;;;7.63;4.38;;;;;;;21.43;54.65;101734.16;5058382;28;20052;-60
2021/08/17 09:10:11;;;;;;;8.43;4.50;;;;;;;21.42;54.99;101732.44;5054164;28;20082;-60
2021/08/17 09:12:42;;;;;;;6.93;4.18;;;;;;;21.42;54.51;101726.31;5054352;28;20051;-59
2021/08/17 09:15:16;;;;;;;8.50;4.93;;;;;;;21.41;54.57;101729.91;5053314;28;20059;-59
2021/08/17 09:17:43;;;;;;;7.97;4.60;;;;;;;21.40;54.44;101739.69;5054456;28;20044;-59
2021/08/17 09:20:14;;;;;;;7.90;4.32;;;;;;;21.41;54.44;101745.84;5054383;28;20047;-59
2021/08/17 09:22:41;;;;;;;8.07;4.70;;;;;;;21.42;54.35;101750.19;5053581;28;20025;-59
2021/08/17 09:25:07;;;;;;;7.80;4.95;;;;;;;21.43;54.53;101751.84;5054144;28;20469;-58
2021/08/17 09:27:35;;;;;;;9.25;4.45;;;;;;;21.42;54.52;101748.34;5053784;28;20024;-59
2021/08/17 09:30:08;;;;;;;9.18;4.38;;;;;;;21.43;54.48;101749.19;5054236;28;20052;-59
2021/08/17 09:32:34;;;;;;;9.52;4.57;;;;;;;21.43;54.41;101752.72;5054424;28;20025;-59
2021/08/17 09:35:02;;;;;;;8.48;4.32;;;;;;;21.45;54.70;101771.97;5053930;28;20029;-60
2021/08/17 09:37:29;;;;;;;8.88;4.28;;;;;;;21.45;54.62;101768.50;5054652;28;20025;-59
2021/08/17 09:39:56;;;;;;;10.45;5.20;;;;;;;21.45;54.60;101765.84;5054468;28;20025;-59
2021/08/17 09:42:25;;;;;;;9.30;4.93;;;;;;;21.45;54.80;101755.25;5054112;28;20029;-57
2021/08/17 09:45:06;;;;;;;7.97;4.15;;;;;;;21.43;54.81;101746.53;5054363;28;20017;-58
2021/08/17 09:47:36;;;;;;;7.40;4.07;;;;;;;21.41;54.85;101740.53;5054028;28;20159;-58
2021/08/17 09:50:38;;;;;;;8.93;4.13;;;;;;;21.40;54.77;101744.16;5053045;28;20048;-58
2021/08/17 09:53:15;;;;;;;9.45;4.40;;;;;;;21.40;54.72;101734.41;5053988;28;20401;-58
2021/08/17 09:55:52;;;;;;;7.95;4.07;;;;;;;21.40;54.90;101736.22;5053869;28;20025;-57
2021/08/17 09:58:27;;;;;;;9.00;3.75;;;;;;;21.39;54.76;101735.34;5056593;28;20017;-58
2021/08/17 10:00:55;;;;;;;6.72;4.00;;;;;;;21.40;54.82;101736.22;5055840;28;20021;-58
2021/08/17 10:03:22;;;;;;;9.77;3.95;;;;;;;21.40;54.70;101726.44;5055963;28;20029;-58
2021/08/17 10:05:49;;;;;;;7.93;3.90;;;;;;;21.37;54.93;101724.88;5054623;28;20473;-59
2021/08/17 10:08:18;;;;;;;7.25;4.00;;;;;;;21.42;55.01;101732.44;5054537;28;20021;-59
2021/08/17 10:10:46;;;;;;;7.53;3.60;;;;;;;21.43;54.94;101731.50;5053035;28;20527;-60
2021/08/17 10:13:14;;;;;;;7.13;3.50;;;;;;;21.43;54.94;101730.63;5053508;28;20017;-59
2021/08/17 10:15:41;;;;;;;7.13;3.50;;;;;;;21.45;54.81;101734.03;5054211;28;20103;-58
2021/08/17 10:18:08;;;;;;;9.50;4.13;;;;;;;21.44;55.09;101732.31;5052687;28;20021;-58
2021/08/17 10:20:36;;;;;;;6.97;3.53;;;;;;;21.44;55.01;101729.66;5053812;28;20025;-58
2021/08/17 10:23:01;;;;;;;6.65;3.88;;;;;;;21.44;54.86;101732.31;5053569;28;20478;-58
2021/08/17 10:25:41;;;;;;;6.97;3.45;;;;;;;21.45;54.72;101726.91;5053106;28;20102;-58
2021/08/17 10:28:32;;;;;;;7.40;3.90;;;;;;;21.43;54.82;101739.44;5053672;28;20484;-59
2021/08/17 10:31:18;;;;;;;7.05;3.63;;;;;;;21.44;54.71;101732.31;5053555;28;20337;-60
2021/08/17 10:34:05;;;;;;;7.35;3.55;;;;;;;21.42;54.83;101721.84;5018403;28;20041;-60
2021/08/17 10:36:44;;;;;;;8.00;3.60;;;;;;;21.43;54.71;101720.03;5053738;28;20040;-61
2021/08/17 10:39:48;;;;;;;5.55;3.35;;;;;;;21.42;54.77;101707.75;5053605;28;20040;-63
2021/08/17 10:42:25;;;;;;;7.35;3.33;;;;;;;21.39;54.86;101706.19;5052045;28;20033;-59
2021/08/17 10:44:51;;;;;;;6.35;3.33;;;;;;;21.41;54.56;101706.06;5053700;28;20024;-58
2021/08/17 10:47:38;;;;;;;7.38;3.40;;;;;;;21.42;54.57;101699.81;5053330;28;20017;-59
2021/08/17 10:50:03;;;;;;;8.07;3.20;;;;;;;21.42;54.54;101697.16;5054269;28;20860;-60
2021/08/17 10:52:30;;;;;;;6.25;3.22;;;;;;;21.42;54.60;101694.50;5052646;28;20127;-59
2021/08/17 10:55:28;;;;;;;5.43;3.00;;;;;;;21.41;54.71;101687.50;5053671;28;20029;-58
2021/08/17 10:57:59;;;;;;;6.43;3.33;;;;;;;21.43;54.74;101691.72;5053036;28;20040;-63
2021/08/17 11:00:43;;;;;;;8.05;3.60;;;;;;;21.42;54.58;101691.84;5052349;28;20021;-61
2021/08/17 11:03:10;;;;;;;6.13;3.13;;;;;;;21.42;54.64;101689.19;5054307;28;20032;-60
2021/08/17 11:05:49;;;;;;;6.18;3.72;;;;;;;21.42;54.56;101692.69;5054654;28;20033;-62
2021/08/17 11:08:33;;;;;;;5.80;3.50;;;;;;;21.43;54.55;101690.84;5054575;28;20025;-59
2021/08/17 11:11:00;;;;;;;5.15;3.08;;;;;;;21.43;54.54;101694.38;5052498;28;20075;-57
2021/08/17 11:13:26;;;;;;;6.60;3.08;;;;;;;21.43;54.42;101690.84;5051765;28;20059;-57
2021/08/17 11:16:06;;;;;;;6.10;3.38;;;;;;;21.42;54.34;101697.16;5052491;28;20064;-58
2021/08/17 11:18:51;;;;;;;6.60;3.20;;;;;;;21.41;54.40;101698.94;5051740;28;20358;-59
2021/08/17 11:21:42;;;;;;;6.35;3.10;;;;;;;21.39;54.69;101682.31;5051903;28;20033;-59
2021/08/17 11:24:09;;;;;;;5.50;3.00;;;;;;;21.37;54.39;101697.53;5052397;28;20036;-58